Latest Weather Observations for Roebourne Airport

IDW60801

Issued at 5:35 pm WST Friday 24 October 2014 (issued every 30 minutes, with the page automatically refreshed every 10 minutes)

About weather observations | Map of weather stations | Latest weather observations for WA | Other Formats
Station Details ID: 004090 Name: ROEBOURNE AERO Lat: -20.76 Lon: 117.16 Height: 10.7 m
Data from the previous 72 hours. | See also: Recent months at Roebourne Airport
Date/Time
WST
Temp
°C
App
Temp
°C
Dew
Point
Rel
Hum
%
Delta-T
°C
Wind Press
QNH
hPa
Press
MSL
hPa
Rain
since 9 am
mm
Dir
 
Spd
km/h
Gust
km/h
Spd
kts
Gust
kts
24/05:30pm 35.5 31.2 13.1 26 13.6 WNW 28 35 15 19 1008.3 1008.3 0.0
24/05:00pm 36.6 31.0 11.4 22 15.0 WNW 32 39 17 21 1008.0 1008.0 0.0
24/04:30pm 38.7 32.9 10.9 19 16.5 WNW 32 39 17 21 1007.9 1007.9 0.0
24/04:00pm 39.0 33.3 11.2 19 16.7 NW 32 39 17 21 1008.0 1008.0 0.0
24/03:30pm 39.3 32.9 10.6 18 17.0 WNW 35 44 19 24 1008.2 1008.2 0.0
24/03:00pm 40.2 33.8 8.6 15 18.3 NW 32 39 17 21 1008.4 1008.4 0.0
24/02:30pm 40.1 33.4 7.5 14 18.6 NW 32 39 17 21 1008.7 1008.7 0.0
24/02:00pm 40.1 34.9 10.4 17 17.7 NW 28 35 15 19 1009.0 1009.0 0.0
24/01:30pm 39.9 34.9 11.1 18 17.3 NNW 28 35 15 19 1009.3 1009.3 0.0
24/01:00pm 39.0 33.7 11.2 19 16.7 NNW 30 35 16 19 1009.8 1009.8 0.0
24/12:30pm 40.9 35.1 8.1 14 18.9 N 28 35 15 19 1010.0 1010.0 0.0
24/12:00pm 41.1 35.6 6.0 12 19.7 N 24 30 13 16 1010.2 1010.2 0.0
24/11:30am 41.3 37.2 6.2 12 19.8 NNW 17 24 9 13 1010.5 1010.5 0.0
24/11:00am 39.9 34.7 7.4 14 18.5 N 24 30 13 16 1010.8 1010.8 0.0
24/10:30am 40.2 37.2 4.1 11 19.6 ESE 9 15 5 8 1011.1 1011.1 0.0
24/10:00am 39.8 37.0 5.1 12 19.1 SSE 9 15 5 8 1011.3 1011.3 0.0
24/09:30am 38.8 35.1 4.3 12 18.6 SSW 13 20 7 11 1011.5 1011.5 0.0
24/09:00am 37.4 33.9 5.4 14 17.5 S 13 20 7 11 1011.7 1011.7 0.0
24/08:30am 36.6 33.2 5.8 15 16.8 S 13 19 7 10 1011.6 1011.6 0.0
24/08:00am 34.7 31.5 6.9 18 15.3 SSW 13 17 7 9 1011.4 1011.4 0.0
24/07:30am 32.1 28.9 7.0 21 13.7 SW 13 17 7 9 1011.2 1011.2 0.0
24/07:00am 29.8 27.8 7.1 24 12.2 WSW 7 9 4 5 1011.2 1011.2 0.0
24/06:30am 27.0 25.1 6.9 28 10.6 W 6 9 3 5 1011.2 1011.2 0.0
24/06:00am 26.7 23.5 6.7 28 10.5 SW 13 17 7 9 1010.8 1010.8 0.0
24/05:30am 26.7 22.7 6.7 28 10.5 SW 17 20 9 11 1010.6 1010.6 0.0
24/05:00am 26.9 22.6 6.9 28 10.6 SW 19 22 10 12 1010.4 1010.4 0.0
24/04:30am 26.6 22.2 6.6 28 10.5 SW 19 20 10 11 1010.2 1010.2 0.0
24/04:00am 27.0 22.7 6.9 28 10.6 SW 19 20 10 11 1010.2 1010.2 0.0
24/03:30am 26.6 23.1 7.1 29 10.3 SW 15 17 8 9 1010.1 1010.1 0.0
24/03:00am 27.7 23.9 7.5 28 10.8 SW 17 19 9 10 1009.9 1009.9 0.0
24/02:30am 26.9 23.4 7.4 29 10.4 SW 15 17 8 9 1010.1 1010.1 0.0
24/02:00am 26.0 22.8 8.5 33 9.5 SW 15 17 8 9 1010.4 1010.4 0.0
24/01:30am 26.7 24.4 9.1 33 9.6 SW 11 13 6 7 1010.5 1010.5 0.0
24/01:00am 27.7 24.8 10.9 35 9.5 SW 17 20 9 11 1010.6 1010.6 0.0
24/12:30am 27.3 25.1 12.1 39 8.8 WSW 15 19 8 10 1010.9 1010.9 0.0
24/12:00am 27.5 26.0 13.1 41 8.5 WSW 13 17 7 9 1011.1 1011.1 0.0
 
Date/Time
WST
Temp
°C
App
Temp
°C
Dew
Point
Rel
Hum
%
Delta-T
°C
Wind Press
QNH
hPa
Press
MSL
hPa
Rain
since 9 am
mm
Dir
 
Spd
km/h
Gust
km/h
Spd
kts
Gust
kts
23/11:30pm 27.9 25.7 13.4 40 8.6 SW 17 20 9 11 1011.1 1011.1 0.0
23/11:00pm 28.7 26.3 13.8 40 8.9 WSW 19 24 10 13 1011.2 1011.2 0.0
23/10:30pm 29.4 26.1 14.0 39 9.3 WSW 24 30 13 16 1011.1 1011.1 0.0
23/10:00pm 29.6 26.8 14.2 39 9.3 WSW 22 28 12 15 1011.2 1011.2 0.0
23/09:30pm 29.9 26.5 13.6 36 9.8 WSW 24 28 13 15 1011.1 1011.1 0.0
23/09:00pm 30.3 27.5 14.4 38 9.7 WSW 22 28 12 15 1010.9 1010.9 0.0
23/08:30pm 30.0 27.7 15.7 42 8.8 W 22 28 12 15 1010.7 1010.7 0.0
23/08:00pm 29.8 27.3 16.2 43 8.5 W 24 30 13 16 1010.4 1010.4 0.0
23/07:30pm 29.9 26.9 16.7 45 8.3 W 28 35 15 19 1010.2 1010.2 0.0
23/07:00pm 30.3 27.7 17.7 46 8.0 W 28 35 15 19 1009.8 1009.8 0.0
23/06:30pm 31.2 28.8 18.2 46 8.4 WNW 28 37 15 20 1009.4 1009.4 0.0
23/06:00pm 32.2 29.9 18.4 44 8.9 WNW 28 35 15 19 1009.2 1009.2 0.0
23/05:30pm 33.2 30.2 17.8 40 9.9 WNW 30 37 16 20 1008.9 1008.9 0.0
23/05:00pm 34.2 30.5 17.4 36 10.8 WNW 33 41 18 22 1008.6 1008.6 0.0
23/04:30pm 36.1 31.4 15.8 30 12.8 WNW 35 43 19 23 1008.6 1008.6 0.0
23/04:00pm 37.3 32.8 16.3 29 13.4 WNW 35 43 19 23 1008.7 1008.7 0.0
23/03:30pm 38.6 34.4 15.7 26 14.6 NW 32 41 17 22 1008.8 1008.8 0.0
23/03:00pm 39.2 34.7 15.5 24 15.1 WNW 33 39 18 21 1008.9 1008.9 0.0
23/02:30pm 40.3 35.4 11.4 18 17.4 W 28 46 15 25 1008.9 1008.9 0.0
23/02:00pm 41.1 37.6 10.3 16 18.4 W 19 28 10 15 1009.4 1009.4 0.0
23/01:30pm 40.8 36.6 5.8 12 19.5 SSW 17 30 9 16 1009.7 1009.7 0.0
23/01:00pm 41.1 37.7 6.0 12 19.7 S 13 32 7 17 1010.2 1010.2 0.0
23/12:30pm 39.5 35.7 6.0 13 18.6 SW 15 20 8 11 1010.8 1010.8 0.0
23/12:00pm 39.2 37.3 6.8 14 18.2 SSW 6 - 3 - - 1011.2 -
23/11:30am 39.3 34.5 5.8 13 18.5 SSW 20 32 11 17 1011.6 1011.6 0.0
23/11:00am 38.9 35.5 7.6 15 17.8 SSW 15 22 8 12 1011.9 1011.9 0.0
23/10:30am 37.4 33.5 7.3 16 16.9 SSW 17 24 9 13 1012.3 1012.3 0.0
23/10:00am 37.9 35.1 8.6 17 16.8 S 13 20 7 11 1012.5 1012.5 0.0
23/09:30am 36.1 33.0 8.8 19 15.6 S 15 22 8 12 1012.7 1012.7 0.0
23/09:00am 35.3 32.0 9.7 21 14.8 S 17 22 9 12 1012.6 1012.6 0.0
23/08:30am 33.8 29.8 9.1 22 14.0 SSW 20 28 11 15 1012.6 1012.6 0.0
23/08:00am 32.7 28.8 9.5 24 13.2 S 20 24 11 13 1012.5 1012.5 0.0
23/07:30am 31.0 27.8 9.8 27 12.0 SW 17 24 9 13 1012.3 1012.3 0.0
23/07:00am 29.3 25.6 9.4 29 11.1 SW 19 24 10 13 1012.1 1012.1 0.0
23/06:30am 27.4 24.4 9.3 32 10.0 WSW 15 19 8 10 1011.9 1011.9 0.0
23/06:00am 26.7 23.2 8.6 32 9.8 WSW 17 20 9 11 1011.3 1011.3 0.0
23/05:30am 27.0 23.8 8.4 31 10.1 SW 15 19 8 10 1011.0 1011.0 0.0
23/05:00am 27.7 23.9 9.0 31 10.3 SW 19 24 10 13 1010.8 1010.8 0.0
23/04:30am 28.0 24.3 9.3 31 10.3 SW 19 24 10 13 1010.6 1010.6 0.0
23/04:00am 28.1 24.4 9.4 31 10.4 SW 19 22 10 12 1010.4 1010.4 0.0
23/03:30am 28.6 24.8 9.8 31 10.5 SW 20 26 11 14 1010.4 1010.4 0.0
23/03:00am 28.4 25.1 9.6 31 10.5 WSW 17 19 9 10 1010.5 1010.5 0.0
23/02:30am 28.5 25.1 9.2 30 10.7 SW 17 20 9 11 1010.6 1010.6 0.0
23/02:00am 28.8 25.4 9.0 29 11.0 SW 17 20 9 11 1010.8 1010.8 0.0
23/01:30am 29.5 25.6 8.5 27 11.6 SW 19 22 10 12 1011.0 1011.0 0.0
23/01:00am 30.1 26.2 8.5 26 11.9 SW 19 24 10 13 1011.0 1011.0 0.0
23/12:30am 30.6 26.0 8.3 25 12.3 SW 22 28 12 15 1011.3 1011.3 0.0
23/12:00am 30.9 26.6 8.0 24 12.6 SW 20 26 11 14 1011.6 1011.6 0.0
 
Date/Time
WST
Temp
°C
App
Temp
°C
Dew
Point
Rel
Hum
%
Delta-T
°C
Wind Press
QNH
hPa
Press
MSL
hPa
Rain
since 9 am
mm
Dir
 
Spd
km/h
Gust
km/h
Spd
kts
Gust
kts
22/11:30pm 31.0 26.8 7.5 23 12.8 SW 19 24 10 13 1011.8 1011.8 0.0
22/11:00pm 31.5 27.1 6.5 21 13.5 SW 19 24 10 13 1012.0 1012.0 0.0
22/10:30pm 31.2 27.1 6.3 21 13.3 SW 17 20 9 11 1012.2 1012.2 0.0
22/10:00pm 32.7 28.0 6.1 19 14.3 SW 20 28 11 15 1012.0 1012.0 0.0
22/09:30pm 33.4 28.7 5.9 18 14.8 SW 20 28 11 15 1012.1 1012.1 0.0
22/09:00pm 33.7 29.0 6.1 18 14.9 WSW 20 26 11 14 1012.3 1012.3 0.0
22/08:30pm 34.0 29.4 5.5 17 15.3 WSW 19 24 10 13 1012.0 1012.0 0.0
22/08:00pm 34.8 30.1 5.3 16 15.8 WSW 19 24 10 13 1011.9 1011.9 0.0
22/07:30pm 35.7 30.8 5.1 15 16.5 SW 20 28 11 15 1011.6 1011.6 0.0
22/07:00pm 36.4 31.4 4.6 14 17.0 WSW 20 26 11 14 1011.1 1011.1 0.0
22/06:30pm 37.0 31.5 4.0 13 17.6 WSW 22 32 12 17 1010.5 1010.5 0.0
22/06:00pm 38.2 33.0 3.8 12 18.4 WSW 20 32 11 17 1010.1 1010.1 0.0
22/05:30pm 39.4 33.4 3.5 11 19.2 WSW 24 39 13 21 1009.8 1009.8 0.0
22/05:00pm 39.7 34.0 8.2 15 18.1 W 28 33 15 18 1009.6 1009.6 0.0
22/04:30pm 41.0 35.0 3.4 10 20.3 WSW 24 35 13 19 1009.5 1009.5 0.0
22/04:00pm 41.7 36.3 2.4 9 21.0 WSW 20 30 11 16 1009.5 1009.5 0.0
22/03:30pm 42.5 37.2 3.0 9 21.3 WSW 20 28 11 15 1009.5 1009.5 0.0
22/03:00pm 41.6 36.1 0.7 8 21.3 WSW 19 26 10 14 1009.8 1009.8 0.0
22/02:30pm 41.4 35.5 7.4 13 19.5 WNW 28 46 15 25 1010.1 1010.1 0.0
22/02:21pm 41.5 35.6 7.5 13 19.5 WNW 28 46 15 25 1010.1 1010.1 0.0
22/02:00pm 41.6 37.0 9.7 15 18.9 W 24 33 13 18 1010.5 1010.5 0.0
22/01:30pm 41.6 37.5 8.7 14 19.2 NW 20 30 11 16 1010.8 1010.8 0.0
22/01:00pm 41.2 36.3 8.4 14 19.0 W 24 35 13 19 1011.2 1011.2 0.0
22/12:30pm 40.4 36.8 9.7 16 18.1 NNW 19 30 10 16 1011.9 1011.9 0.0
22/12:00pm 39.8 36.5 2.5 10 19.7 NNW 9 20 5 11 1012.5 1012.5 0.0
22/11:30am 40.3 37.1 2.8 10 20.0 SSE 9 24 5 13 1012.9 1012.9 0.0
22/11:00am 39.5 36.0 3.6 11 19.3 SW 11 22 6 12 1013.3 1013.3 0.0
22/10:30am 38.8 36.4 4.3 12 18.6 SW 6 17 3 9 1013.8 1013.7 0.0
22/10:00am 38.8 34.7 4.3 12 18.6 S 15 26 8 14 1014.1 1014.0 0.0
22/09:30am 38.2 33.6 3.8 12 18.4 S 17 28 9 15 1014.3 1014.2 0.0
22/09:00am 36.7 33.3 3.8 13 17.4 S 11 17 6 9 1014.4 1014.3 0.0
22/08:30am 35.2 30.0 3.7 14 16.5 SSE 20 26 11 14 1014.4 1014.3 0.0
22/08:00am 34.0 29.8 3.7 15 15.8 S 15 20 8 11 1014.2 1014.1 0.0
22/07:30am 31.6 28.0 5.2 19 13.9 S 13 20 7 11 1013.9 1013.8 0.0
22/07:00am 28.3 24.6 4.6 22 12.1 SSW 13 17 7 9 1013.7 1013.6 0.0
22/06:30am 26.5 23.6 4.9 25 11.0 SSW 9 11 5 6 1013.7 1013.6 0.0
22/06:00am 25.2 21.1 4.3 26 10.4 SW 15 17 8 9 1013.3 1013.3 0.0
22/05:30am 24.6 19.8 4.4 27 10.1 SW 19 20 10 11 1013.1 1013.1 0.0
22/05:00am 25.0 20.2 4.7 27 10.2 SW 19 24 10 13 1012.9 1012.9 0.0
22/04:30am 25.5 20.2 5.1 27 10.3 SW 22 26 12 14 1012.6 1012.6 0.0
22/04:00am 25.4 20.6 5.6 28 10.1 SW 20 24 11 13 1012.5 1012.5 0.0
22/03:30am 25.4 20.6 5.6 28 10.1 SW 20 26 11 14 1012.5 1012.5 0.0
22/03:00am 25.9 20.8 6.0 28 10.3 SW 22 28 12 15 1012.7 1012.7 0.0
22/02:30am 25.4 19.8 5.6 28 10.1 WSW 24 30 13 16 1012.8 1012.8 0.0
22/02:00am 26.2 20.8 4.6 25 10.9 SW 22 28 12 15 1012.9 1012.9 0.0
22/01:30am 26.4 20.9 4.2 24 11.1 SW 22 30 12 16 1013.1 1013.1 0.0
22/01:00am 26.3 21.2 2.9 22 11.5 SW 19 24 10 13 1013.4 1013.4 0.0
22/12:30am 25.8 20.9 1.8 21 11.5 SW 17 22 9 12 1013.7 1013.6 0.0
22/12:00am 26.3 21.2 0.9 19 12.0 SW 17 20 9 11 1014.0 1013.9 0.0
 
Date/Time
WST
Temp
°C
App
Temp
°C
Dew
Point
Rel
Hum
%
Delta-T
°C
Wind Press
QNH
hPa
Press
MSL
hPa
Rain
since 9 am
mm
Dir
 
Spd
km/h
Gust
km/h
Spd
kts
Gust
kts
21/11:30pm 26.7 21.2 0.4 18 12.3 SW 19 22 10 12 1014.3 1014.2 0.0
21/11:00pm 27.1 21.3 2.2 20 12.1 SW 22 28 12 15 1014.5 1014.4 0.0
21/10:30pm 27.4 22.2 3.8 22 11.8 SW 20 28 11 15 1014.9 1014.8 0.0
21/10:00pm 27.1 23.7 6.0 26 11.0 WSW 13 17 7 9 1015.3 1015.2 0.0
21/09:30pm 27.4 23.7 6.2 26 11.1 WSW 15 20 8 11 1015.4 1015.3 0.0
21/09:00pm 28.2 23.9 5.1 23 11.9 WSW 17 22 9 12 1015.4 1015.3 0.0
21/08:30pm 28.0 24.4 6.7 26 11.3 W 15 19 8 10 1015.3 1015.2 0.0
21/08:00pm 28.0 24.4 10.7 34 9.8 W 20 24 11 13 1015.1 1015.0 0.0
21/07:30pm 28.6 24.9 10.3 32 10.3 W 20 26 11 14 1014.9 1014.8 0.0
21/07:00pm 29.3 24.1 8.9 28 11.3 W 26 33 14 18 1014.7 1014.6 0.0
21/06:30pm 30.1 25.2 8.5 26 11.9 W 24 30 13 16 1014.4 1014.3 0.0
21/06:00pm 31.4 26.0 9.6 26 12.3 WNW 28 35 15 19 1014.1 1014.0 0.0

Other Formats:

Comma delimited format used in spreadsheet applications
http://www.bom.gov.au/fwo/IDW60801/IDW60801.94308.axf

JavaScript Object Notation format (JSON) in row-major order
http://www.bom.gov.au/fwo/IDW60801/IDW60801.94308.json